Impacts TAF Board
For situational awareness. Not to be used for flight planning purposes.
IDs:

KISP - Islip/Macarthur Arpt, NY, US

Issued at 2020 UTC 18 Sep 2018
Updated at 2058 UTC 18 Sep 2018
Potential Impact None Slight Moderate High
Time<<19/09Z 19/10Z 19/11Z 19/12Z 19/13Z 19/14Z 19/15Z 19/16Z 19/17Z 19/18Z 19/19Z 19/20Z 19/21Z>>
Type PRVL PRVL PRVL PRVL PRVL PRVL PRVL PRVL PRVL
VIS >6 >6 >6 >6 >6 >6 >6 >6 >6
CIG -- -- -- -- -- -- -- -- --
Cover FEW FEW FEW FEW FEW FEW FEW FEW FEW
FltCat VFR VFR VFR VFR VFR VFR VFR VFR VFR
WX -- -- -- -- -- -- -- -- --
WDir 360 360 360 360 360 360 10 10 10
WSpd 9 9 9 9 9 9 11 11 11
WGst -- -- -- -- -- -- -- -- --
Raw TAF
KISP 182020Z 1820/1918 36007KT 6SM -SHRA BR SCT012 BKN025
  TEMPO 1820/1822 4SM -SHRA BKN006 BKN025
  FM182200 36007KT P6SM SCT025 BKN060
  FM190100 36006KT P6SM FEW040
  FM190900 36009KT P6SM FEW020 FEW040
  FM191500 01011KT P6SM FEW050


METAR Board
Radar Display
Forecast Discussion
For situational awareness. Not to be used for flight planning purposes.